Durham — WDF3868 — position and weather

sailwx.info

Track history (hours):
 
Tides and Currents Weather Stations Pressure Air Temp Water Temp Dewpoint Dewpoint Depression Visibility Wind Speed Wind Dir Waves Ship Positions

Durham

Owner: KEN'S BOOMING & BOAT SERVICE, INC., BAYONNE, NJ. More information available from US FCC via Universal Licensing System and Coast Guard Vessel Documentation Center.

Last reported at 2016-Jun-30 17:32 UTC. Time now 2016-Jul-01 10:07 UTC.
Position N 40°39' W 074°07'.

Length 18 m.

MMSI: 367444950.

Date/timePositionNaut miles runAvg speedWind from/ knotsBaromVisibWave heightAir tempDewpointWater temp
2016-Jun-30 17:32N 40°39' W 074°07'4 3.8
2016-Jun-30 16:33N 40°39' W 074°02'0 0.0
2016-Jun-30 15:34N 40°39' W 074°02'0 0.0
2016-Jun-30 14:34N 40°39' W 074°02'0 0.0
2016-Jun-30 13:33N 40°39' W 074°02'0 0.0
2016-Jun-30 12:34N 40°39' W 074°02'0 0.0
2016-Jun-30 11:33N 40°39' W 074°02'1 0.8
2016-Jun-30 10:33N 40°39' W 074°03'3 0.2
2016-Jun-29 16:29N 40°39' W 074°07'5 5.7
2016-Jun-29 15:33N 40°43' W 074°02'6 1.6
2016-Jun-29 11:31N 40°49' W 073°59'4 0.3
2016-Jun-28 20:33N 40°45' W 074°01'8 7.0
2016-Jun-28 19:29N 40°39' W 074°07'0 0.0
2016-Jun-28 18:33N 40°39' W 074°07'  
Track history (hours):
 
Tides and Currents Weather Stations Pressure Air Temp Water Temp Dewpoint Dewpoint Depression Visibility Wind Speed Wind Dir Waves Ship Positions

Durham

Owner: KEN'S BOOMING & BOAT SERVICE, INC., BAYONNE, NJ. More information available from US FCC via Universal Licensing System and Coast Guard Vessel Documentation Center.

Last reported at 2016-Jun-30 17:32 UTC. Time now 2016-Jul-01 10:07 UTC.
Position N 40°39' W 074°07'.

Length 18 m.

MMSI: 367444950.

Date/timePositionNaut miles runAvg speedWind from/ knotsBaromVisibWave heightAir tempDewpointWater temp
2016-Jun-30 17:32N 40°39' W 074°07'4 3.8
2016-Jun-30 16:33N 40°39' W 074°02'0 0.0
2016-Jun-30 15:34N 40°39' W 074°02'0 0.0
2016-Jun-30 14:34N 40°39' W 074°02'0 0.0
2016-Jun-30 13:33N 40°39' W 074°02'0 0.0
2016-Jun-30 12:34N 40°39' W 074°02'0 0.0
2016-Jun-30 11:33N 40°39' W 074°02'1 0.8
2016-Jun-30 10:33N 40°39' W 074°03'3 0.2
2016-Jun-29 16:29N 40°39' W 074°07'5 5.7
2016-Jun-29 15:33N 40°43' W 074°02'6 1.6
2016-Jun-29 11:31N 40°49' W 073°59'4 0.3
2016-Jun-28 20:33N 40°45' W 074°01'8 7.0
2016-Jun-28 19:29N 40°39' W 074°07'0 0.0
2016-Jun-28 18:33N 40°39' W 074°07'  

Dump ship's entire track history